Time;durP1;ratioP1;P1;durP2;ratioP2;P2;SDS_P1;SDS_P2;PMS_P1;PMS_P2;Temp;Humidity;BMP_temperature;BMP_pressure;BME280_temperature;BME280_humidity;BME280_pressure;Samples;Min_cycle;Max_cycle;Signal;HPM_P1;HPM_P2
2023/08/08 03:02:05;;;;;;;1.65;0.52;;;20.80;54.10;;;;;;5124598;23;45960;-82
2023/08/08 03:04:31;;;;;;;1.20;0.70;;;20.80;54.20;;;;;;4860980;28;45435;-83
2023/08/08 03:06:56;;;;;;;2.83;0.80;;;20.90;54.20;;;;;;4868088;28;45289;-82
2023/08/08 03:09:22;;;;;;;0.70;0.60;;;20.80;54.20;;;;;;4879511;28;45053;-82
2023/08/08 03:11:47;;;;;;;0.50;0.50;;;20.80;54.10;;;;;;4887906;28;47587;-87
2023/08/08 03:14:13;;;;;;;2.80;0.85;;;20.90;54.20;;;;;;4870275;28;44922;-81
2023/08/08 03:16:39;;;;;;;1.05;0.73;;;20.90;54.20;;;;;;4875318;28;45230;-82
2023/08/08 03:19:04;;;;;;;0.68;0.65;;;20.90;54.20;;;;;;4881940;28;44997;-82
2023/08/08 03:21:30;;;;;;;2.50;0.80;;;20.90;54.20;;;;;;4864741;28;47215;-83
2023/08/08 03:23:56;;;;;;;1.00;0.90;;;20.80;54.10;;;;;;4886903;28;45408;-82
2023/08/08 03:26:21;;;;;;;0.80;0.65;;;20.80;54.10;;;;;;4863533;28;45882;-82
2023/08/08 03:28:50;;;;;;;1.20;0.73;;;20.80;54.10;;;;;;4853607;28;45933;-82
2023/08/08 03:31:16;;;;;;;0.65;0.65;;;20.80;54.10;;;;;;4876882;28;45752;-82
2023/08/08 03:33:42;;;;;;;0.65;0.60;;;20.80;54.10;;;;;;4883422;28;44991;-82
2023/08/08 03:36:08;;;;;;;0.95;0.88;;;20.80;54.20;;;;;;4850628;28;45879;-83
2023/08/08 03:38:34;;;;;;;1.00;0.60;;;20.80;54.10;;;;;;4885242;28;45600;-80
2023/08/08 03:40:59;;;;;;;0.70;0.70;;;20.80;54.10;;;;;;4866136;28;47328;-84
2023/08/08 03:43:25;;;;;;;0.50;0.50;;;20.80;54.10;;;;;;4895668;28;45566;-83
2023/08/08 03:45:50;;;;;;;0.77;0.77;;;20.80;54.10;;;;;;4863087;28;44896;-82
2023/08/08 03:48:16;;;;;;;0.60;0.60;;;20.80;54.10;;;;;;4869507;28;45548;-82
2023/08/08 03:50:42;;;;;;;0.50;0.50;;;20.80;54.10;;;;;;4848096;28;47207;-81
2023/08/08 03:53:07;;;;;;;0.70;0.70;;;20.90;54.20;;;;;;4869541;28;45592;-86
2023/08/08 03:55:33;;;;;;;1.50;0.70;;;20.80;54.10;;;;;;4881151;28;45459;-84
2023/08/08 03:57:59;;;;;;;0.73;0.50;;;20.80;54.10;;;;;;4899352;28;45023;-81
2023/08/08 04:00:24;;;;;;;0.75;0.60;;;20.80;54.10;;;;;;4875817;28;46164;-85
2023/08/08 04:02:50;;;;;;;0.65;0.60;;;20.80;54.20;;;;;;4864694;28;45526;-83
2023/08/08 04:05:15;;;;;;;0.65;0.63;;;20.80;54.10;;;;;;4862717;28;46171;-83
2023/08/08 04:07:41;;;;;;;0.73;0.50;;;20.80;54.10;;;;;;4865096;28;45884;-83
2023/08/08 04:10:07;;;;;;;0.82;0.45;;;20.80;54.10;;;;;;4845170;28;47788;-83
2023/08/08 04:12:35;;;;;;;1.20;1.10;;;20.80;54.10;;;;;;4870041;28;45295;-84
2023/08/08 04:15:00;;;;;;;2.00;0.52;;;20.80;54.10;;;;;;4884883;28;45063;-82
2023/08/08 04:17:26;;;;;;;1.10;0.60;;;20.80;54.20;;;;;;4860024;28;45773;-86
2023/08/08 04:19:52;;;;;;;0.85;0.60;;;20.80;54.10;;;;;;4872038;28;46050;-82
2023/08/08 04:22:18;;;;;;;0.55;0.55;;;20.80;54.10;;;;;;4867598;28;45361;-83
2023/08/08 04:24:43;;;;;;;0.75;0.63;;;20.80;54.10;;;;;;4853707;28;45499;-82
2023/08/08 04:27:09;;;;;;;0.90;0.70;;;20.80;54.10;;;;;;4857025;28;45820;-87
2023/08/08 04:29:35;;;;;;;0.68;0.55;;;20.80;54.10;;;;;;4896518;28;46354;-83
2023/08/08 04:32:01;;;;;;;0.40;0.40;;;20.80;54.10;;;;;;4862115;28;44677;-82
2023/08/08 04:34:27;;;;;;;0.70;0.70;;;20.80;54.10;;;;;;4851829;28;45632;-84
2023/08/08 04:36:52;;;;;;;0.65;0.60;;;20.80;54.10;;;;;;4878300;28;45500;-83
2023/08/08 04:39:18;;;;;;;0.57;0.50;;;20.80;54.10;;;;;;4896329;28;45627;-82
2023/08/08 04:41:43;;;;;;;0.70;0.60;;;20.80;54.10;;;;;;4877788;28;45134;-82
2023/08/08 04:44:09;;;;;;;0.88;0.70;;;20.80;54.10;;;;;;4863366;28;45011;-84
2023/08/08 04:46:34;;;;;;;0.80;0.50;;;20.80;54.10;;;;;;4877254;28;45395;-85
2023/08/08 04:49:00;;;;;;;0.55;0.50;;;20.80;54.10;;;;;;4851029;28;47283;-83
2023/08/08 04:51:25;;;;;;;0.47;0.47;;;20.80;54.10;;;;;;4863888;28;45500;-83
2023/08/08 04:53:51;;;;;;;0.50;0.50;;;20.80;54.10;;;;;;4869605;28;45126;-81
2023/08/08 04:56:16;;;;;;;1.15;0.50;;;20.80;54.10;;;;;;4869771;28;45528;-81
2023/08/08 04:58:42;;;;;;;0.85;0.60;;;20.80;54.10;;;;;;4875824;28;45858;-82
2023/08/08 05:01:11;;;;;;;0.40;0.40;;;20.80;54.10;;;;;;4849118;28;45695;-81
2023/08/08 05:03:37;;;;;;;0.88;0.50;;;20.80;54.20;;;;;;4883306;28;45896;-81
2023/08/08 05:06:03;;;;;;;0.60;0.60;;;20.80;54.10;;;;;;4867090;28;45318;-82
2023/08/08 05:08:28;;;;;;;0.70;0.60;;;20.80;54.10;;;;;;4881100;28;46796;-81
2023/08/08 05:10:54;;;;;;;1.23;0.60;;;20.80;54.10;;;;;;4901637;28;45380;-81
2023/08/08 05:13:19;;;;;;;0.90;0.60;;;20.80;54.10;;;;;;4870747;28;45756;-83
2023/08/08 05:15:45;;;;;;;1.15;0.60;;;20.80;54.10;;;;;;4863858;28;45723;-82
2023/08/08 05:18:10;;;;;;;0.90;0.60;;;20.80;54.10;;;;;;4882542;28;45326;-81
2023/08/08 05:20:36;;;;;;;2.20;0.70;;;20.80;54.10;;;;;;4878481;28;45710;-82
2023/08/08 05:23:01;;;;;;;0.80;0.55;;;20.70;54.10;;;;;;4884743;28;45575;-82
2023/08/08 05:25:27;;;;;;;0.80;0.60;;;20.80;54.20;;;;;;4847262;28;45316;-86
2023/08/08 05:27:53;;;;;;;0.95;0.70;;;20.80;54.10;;;;;;4883533;28;45194;-83
2023/08/08 05:30:19;;;;;;;0.93;0.60;;;20.70;54.10;;;;;;4874364;28;45287;-86
2023/08/08 05:32:44;;;;;;;0.60;0.50;;;20.70;54.10;;;;;;4864743;28;44781;-82
2023/08/08 05:35:10;;;;;;;0.47;0.43;;;20.80;54.10;;;;;;4861480;28;45691;-82
2023/08/08 05:37:35;;;;;;;0.70;0.63;;;20.80;54.10;;;;;;4895719;28;46385;-81
2023/08/08 05:40:01;;;;;;;0.80;0.52;;;20.80;54.10;;;;;;4866589;28;45785;-83
2023/08/08 05:42:27;;;;;;;0.68;0.68;;;20.70;54.10;;;;;;4881682;28;45938;-83
2023/08/08 05:44:52;;;;;;;1.17;0.60;;;20.80;54.10;;;;;;4879960;28;45642;-84
2023/08/08 05:47:18;;;;;;;0.45;0.45;;;20.80;54.10;;;;;;4873696;28;45203;-84
2023/08/08 05:49:43;;;;;;;0.82;0.70;;;20.80;54.10;;;;;;4889020;28;45074;-81
2023/08/08 05:52:09;;;;;;;0.68;0.68;;;20.70;54.10;;;;;;4879514;28;45371;-82
2023/08/08 05:54:35;;;;;;;0.75;0.70;;;20.80;54.10;;;;;;4880325;28;45171;-81
2023/08/08 05:57:02;;;;;;;0.70;0.60;;;20.70;54.10;;;;;;4895105;28;46825;-83
2023/08/08 05:59:27;;;;;;;0.60;0.60;;;20.70;54.10;;;;;;4852370;28;45625;-83
2023/08/08 06:01:53;;;;;;;0.75;0.65;;;20.70;54.10;;;;;;4861492;28;45341;-82
2023/08/08 06:04:18;;;;;;;1.08;0.77;;;20.70;54.10;;;;;;4865331;28;45737;-84
2023/08/08 06:06:44;;;;;;;0.68;0.68;;;20.70;54.10;;;;;;4877135;28;46911;-82
2023/08/08 06:09:10;;;;;;;0.60;0.60;;;20.70;54.10;;;;;;4879390;28;46068;-83
2023/08/08 06:11:35;;;;;;;1.45;0.47;;;20.70;54.10;;;;;;4847554;28;45570;-82
2023/08/08 06:14:01;;;;;;;0.90;0.60;;;20.70;54.10;;;;;;4896187;28;45277;-81
2023/08/08 06:16:27;;;;;;;1.63;0.63;;;20.70;54.10;;;;;;4858437;28;47063;-81
2023/08/08 06:18:52;;;;;;;0.70;0.60;;;20.70;54.10;;;;;;4850245;28;45207;-81
2023/08/08 06:21:18;;;;;;;0.85;0.60;;;20.70;54.10;;;;;;4895462;28;45253;-82
2023/08/08 06:23:43;;;;;;;0.80;0.60;;;20.70;54.10;;;;;;4878316;28;46020;-81
2023/08/08 06:26:09;;;;;;;0.90;0.50;;;20.80;54.10;;;;;;4877171;28;46184;-83
2023/08/08 06:28:35;;;;;;;0.93;0.70;;;20.70;54.10;;;;;;4880969;28;44783;-81
2023/08/08 06:31:00;;;;;;;0.77;0.55;;;20.70;54.10;;;;;;4876744;28;45864;-82
2023/08/08 06:33:26;;;;;;;1.08;0.60;;;20.70;54.10;;;;;;4880964;28;45100;-83
2023/08/08 06:35:52;;;;;;;0.80;0.70;;;20.70;54.10;;;;;;4880164;28;45348;-82
2023/08/08 06:38:17;;;;;;;1.17;0.60;;;20.70;54.10;;;;;;4865388;28;45227;-82
2023/08/08 06:40:43;;;;;;;0.70;0.70;;;20.70;54.10;;;;;;4894380;28;46327;-82
2023/08/08 06:43:08;;;;;;;0.50;0.50;;;20.70;54.10;;;;;;4855919;28;45725;-81
2023/08/08 06:45:34;;;;;;;0.80;0.50;;;20.70;54.10;;;;;;4860664;28;45680;-84
2023/08/08 06:48:00;;;;;;;0.55;0.50;;;20.70;54.10;;;;;;4867115;28;45733;-82
2023/08/08 06:50:26;;;;;;;1.25;0.57;;;20.70;54.10;;;;;;4893353;28;45792;-81
2023/08/08 06:52:54;;;;;;;0.65;0.50;;;20.70;54.10;;;;;;4882108;28;45707;-81
2023/08/08 06:55:19;;;;;;;0.80;0.50;;;20.70;54.70;;;;;;4868653;28;48089;-83
2023/08/08 06:57:45;;;;;;;0.82;0.77;;;20.70;54.20;;;;;;4866802;28;45438;-82
2023/08/08 07:00:13;;;;;;;0.75;0.60;;;20.70;54.10;;;;;;4880554;28;45101;-85
2023/08/08 07:02:39;;;;;;;0.57;0.57;;;20.70;54.20;;;;;;4865584;28;45819;-81
2023/08/08 07:05:09;;;;;;;1.05;0.60;;;20.70;54.10;;;;;;4865023;28;46518;-86
2023/08/08 07:07:35;;;;;;;0.90;0.68;;;20.70;54.20;;;;;;4883884;28;45666;-81
2023/08/08 07:10:06;;;;;;;1.13;0.73;;;20.70;54.20;;;;;;4898325;28;45289;-82
2023/08/08 07:12:31;;;;;;;0.57;0.50;;;20.70;54.20;;;;;;4858721;28;44919;-82
2023/08/08 07:14:57;;;;;;;0.95;0.47;;;20.70;54.20;;;;;;4918489;28;46443;-82
2023/08/08 07:17:22;;;;;;;1.40;0.70;;;20.70;54.20;;;;;;4897720;28;44794;-82
2023/08/08 07:19:48;;;;;;;0.70;0.60;;;20.70;54.20;;;;;;4882098;28;45269;-83
2023/08/08 07:22:14;;;;;;;0.60;0.50;;;20.70;54.20;;;;;;4897819;28;45073;-83
2023/08/08 07:24:39;;;;;;;1.15;0.63;;;20.70;54.20;;;;;;4868012;28;47214;-82
2023/08/08 07:27:05;;;;;;;0.65;0.50;;;20.70;54.20;;;;;;4883907;28;45079;-83
2023/08/08 07:29:30;;;;;;;0.95;0.63;;;20.70;54.20;;;;;;4868883;28;45600;-82
2023/08/08 07:31:57;;;;;;;0.68;0.60;;;20.70;54.20;;;;;;4849533;28;45813;-82
2023/08/08 07:34:23;;;;;;;0.63;0.63;;;20.70;54.20;;;;;;4867212;28;47219;-83
2023/08/08 07:36:48;;;;;;;0.88;0.70;;;20.70;54.20;;;;;;4863956;28;45283;-82
2023/08/08 07:39:14;;;;;;;0.77;0.68;;;20.70;54.20;;;;;;4864889;28;45547;-83
2023/08/08 07:41:40;;;;;;;0.90;0.60;;;20.70;54.20;;;;;;4857974;28;45388;-84
2023/08/08 07:44:05;;;;;;;0.50;0.50;;;20.70;54.30;;;;;;4881469;28;46208;-82
2023/08/08 07:46:31;;;;;;;0.82;0.50;;;20.70;54.60;;;;;;4890863;28;45763;-81
2023/08/08 07:48:59;;;;;;;0.60;0.52;;;20.70;54.20;;;;;;4859005;28;45456;-82
2023/08/08 07:51:25;;;;;;;0.50;0.45;;;20.70;54.20;;;;;;4860758;28;46109;-82
2023/08/08 07:53:50;;;;;;;0.80;0.45;;;20.70;54.20;;;;;;4892014;28;46948;-84
2023/08/08 07:56:16;;;;;;;1.08;0.70;;;20.70;54.20;;;;;;4893748;28;45017;-84
2023/08/08 07:58:41;;;;;;;0.52;0.52;;;20.70;54.30;;;;;;4848702;28;45155;-82
2023/08/08 08:01:07;;;;;;;0.50;0.50;;;20.70;54.30;;;;;;4889416;28;46358;-84
2023/08/08 08:03:33;;;;;;;1.17;0.68;;;20.70;54.90;;;;;;4845734;28;48786;-82
2023/08/08 08:05:58;;;;;;;0.93;0.60;;;20.70;54.30;;;;;;4876373;28;45082;-82
2023/08/08 08:08:24;;;;;;;0.93;0.60;;;20.70;54.30;;;;;;4878939;28;45746;-83
2023/08/08 08:10:50;;;;;;;0.95;0.68;;;20.70;54.30;;;;;;4859968;28;45437;-82
2023/08/08 08:13:16;;;;;;;1.08;0.60;;;20.70;54.30;;;;;;4901828;28;46358;-81
2023/08/08 08:15:42;;;;;;;1.15;0.70;;;20.70;54.30;;;;;;4875303;28;45184;-84
2023/08/08 08:18:08;;;;;;;2.47;0.80;;;20.70;54.30;;;;;;4862752;28;45424;-81
2023/08/08 08:20:34;;;;;;;0.75;0.60;;;20.70;54.30;;;;;;4875942;28;45719;-81
2023/08/08 08:22:59;;;;;;;1.77;0.60;;;20.70;54.30;;;;;;4861481;28;47091;-82
2023/08/08 08:25:25;;;;;;;1.27;0.60;;;20.70;54.30;;;;;;4859474;28;45708;-82
2023/08/08 08:27:50;;;;;;;0.70;0.50;;;20.70;54.30;;;;;;4877267;28;45583;-82
2023/08/08 08:30:16;;;;;;;0.68;0.50;;;20.70;54.30;;;;;;4889972;28;46819;-83
2023/08/08 08:32:41;;;;;;;0.73;0.40;;;20.70;54.40;;;;;;4862383;28;47266;-81
2023/08/08 08:35:08;;;;;;;1.52;0.70;;;20.70;54.40;;;;;;4894128;28;45696;-83
2023/08/08 08:37:36;;;;;;;0.93;0.60;;;20.70;54.40;;;;;;4848563;28;44914;-81
2023/08/08 08:40:05;;;;;;;1.20;0.60;;;20.70;54.40;;;;;;4869296;28;45879;-83
2023/08/08 08:42:32;;;;;;;0.70;0.60;;;20.70;54.40;;;;;;4862959;28;45554;-85
2023/08/08 08:44:58;;;;;;;0.88;0.50;;;20.70;54.40;;;;;;4883311;28;45569;-82
2023/08/08 08:47:24;;;;;;;0.65;0.60;;;20.70;54.40;;;;;;4858820;28;45895;-83
2023/08/08 08:49:49;;;;;;;0.90;0.70;;;20.70;54.40;;;;;;4877821;28;45556;-83
2023/08/08 08:52:15;;;;;;;0.82;0.70;;;20.70;54.40;;;;;;4874150;28;45181;-82
2023/08/08 08:54:40;;;;;;;1.00;0.77;;;20.70;54.40;;;;;;4864971;28;45696;-82
2023/08/08 08:57:06;;;;;;;0.40;0.40;;;20.70;54.40;;;;;;4872911;28;45567;-82
2023/08/08 08:59:31;;;;;;;1.15;0.55;;;20.70;54.40;;;;;;4878757;28;45914;-83
2023/08/08 09:01:57;;;;;;;0.50;0.50;;;20.70;54.40;;;;;;4889294;28;46307;-82
2023/08/08 09:04:23;;;;;;;0.70;0.60;;;20.70;54.40;;;;;;4878910;28;45561;-82
2023/08/08 09:06:49;;;;;;;0.47;0.40;;;20.70;54.40;;;;;;4892811;28;45497;-82
2023/08/08 09:09:15;;;;;;;0.88;0.60;;;20.70;54.40;;;;;;4891688;28;45664;-82
2023/08/08 09:11:46;;;;;;;0.40;0.40;;;20.70;54.40;;;;;;4876301;28;45634;-83
2023/08/08 09:14:18;;;;;;;0.80;0.70;;;20.70;54.40;;;;;;4864004;28;46155;-81
2023/08/08 09:16:45;;;;;;;0.63;0.50;;;20.70;54.40;;;;;;4859070;28;45343;-83
2023/08/08 09:19:11;;;;;;;1.92;0.77;;;20.70;54.40;;;;;;4879743;28;45893;-81
2023/08/08 09:21:37;;;;;;;0.73;0.50;;;20.70;54.40;;;;;;4875719;28;45324;-82
2023/08/08 09:24:03;;;;;;;0.60;0.40;;;20.70;54.40;;;;;;4891508;28;45147;-82
2023/08/08 09:26:28;;;;;;;0.47;0.43;;;20.70;54.40;;;;;;4878870;28;45398;-82
2023/08/08 09:28:54;;;;;;;0.95;0.60;;;20.70;54.40;;;;;;4879689;28;45977;-84
2023/08/08 09:31:20;;;;;;;1.15;0.47;;;20.70;54.40;;;;;;4887920;28;46091;-83
2023/08/08 09:33:48;;;;;;;0.68;0.40;;;20.70;54.40;;;;;;4874732;28;45880;-82
2023/08/08 09:36:17;;;;;;;1.05;0.40;;;20.70;54.40;;;;;;4865045;28;45440;-81
2023/08/08 09:38:43;;;;;;;0.50;0.45;;;20.70;54.40;;;;;;4860822;28;45931;-82
2023/08/08 09:41:08;;;;;;;1.15;0.60;;;20.70;54.40;;;;;;4875279;28;46920;-82
2023/08/08 09:43:34;;;;;;;0.73;0.52;;;20.70;54.40;;;;;;4895961;28;45530;-82
2023/08/08 09:46:00;;;;;;;0.73;0.50;;;20.70;54.40;;;;;;4871872;28;45758;-83
2023/08/08 09:48:31;;;;;;;2.58;0.50;;;20.70;54.40;;;;;;4880603;28;45532;-82
2023/08/08 09:50:59;;;;;;;1.15;0.50;;;20.70;54.30;;;;;;4842837;28;46891;-81
2023/08/08 09:53:25;;;;;;;0.80;0.50;;;20.70;54.30;;;;;;4865198;28;45594;-81
2023/08/08 09:55:51;;;;;;;0.75;0.52;;;20.70;54.40;;;;;;4846375;28;46517;-86
2023/08/08 09:58:17;;;;;;;0.60;0.57;;;20.70;54.40;;;;;;4882352;28;45331;-84
2023/08/08 10:00:43;;;;;;;0.70;0.40;;;20.70;54.30;;;;;;4857998;28;46957;-84
2023/08/08 10:03:09;;;;;;;1.27;0.50;;;20.70;54.30;;;;;;4867560;28;45450;-82
2023/08/08 10:05:35;;;;;;;2.65;0.93;;;20.70;54.30;;;;;;4876010;28;45276;-83
2023/08/08 10:08:01;;;;;;;1.63;0.50;;;20.70;54.30;;;;;;4863010;28;45636;-82
2023/08/08 10:10:30;;;;;;;0.85;0.60;;;20.70;54.30;;;;;;4850465;28;47031;-81
2023/08/08 10:12:55;;;;;;;1.02;0.60;;;20.70;54.30;;;;;;4860988;28;45745;-81
2023/08/08 10:15:26;;;;;;;0.57;0.45;;;20.70;54.30;;;;;;4890207;28;45780;-84
2023/08/08 10:17:54;;;;;;;1.98;0.75;;;20.70;54.30;;;;;;4877785;28;45715;-84
2023/08/08 10:20:20;;;;;;;1.65;0.55;;;20.70;54.30;;;;;;4867093;28;47221;-83
2023/08/08 10:22:46;;;;;;;1.83;0.70;;;20.70;54.30;;;;;;4891577;28;45444;-83
2023/08/08 10:25:26;;;;;;;1.45;0.60;;;20.70;54.30;;;;;;4860327;28;45223;-83
2023/08/08 10:28:06;;;;;;;0.93;0.52;;;20.70;54.20;;;;;;4878767;28;46547;-83
2023/08/08 10:30:55;;;;;;;1.00;0.63;;;20.70;54.20;;;;;;4888283;28;45415;-81
2023/08/08 10:33:40;;;;;;;1.05;0.40;;;20.70;54.20;;;;;;4878917;28;46115;-82
2023/08/08 10:36:09;;;;;;;1.13;0.70;;;20.70;54.30;;;;;;4873354;28;45619;-83
2023/08/08 10:38:52;;;;;;;1.10;0.50;;;20.70;54.30;;;;;;4875294;28;45371;-83
2023/08/08 10:41:19;;;;;;;1.70;0.70;;;20.80;54.20;;;;;;4852788;28;47641;-83
2023/08/08 10:43:53;;;;;;;1.73;0.60;;;20.70;54.20;;;;;;4859997;28;45171;-83
2023/08/08 10:46:31;;;;;;;1.02;0.70;;;20.70;54.20;;;;;;4871541;28;45453;-82
2023/08/08 10:49:01;;;;;;;0.55;0.50;;;20.80;54.20;;;;;;4875214;28;45752;-82
2023/08/08 10:51:37;;;;;;;1.85;0.77;;;20.70;54.20;;;;;;4855203;28;47210;-84
2023/08/08 10:54:06;;;;;;;0.77;0.40;;;20.70;54.30;;;;;;4858133;28;45064;-83
2023/08/08 10:56:32;;;;;;;1.33;0.73;;;20.80;54.20;;;;;;4869050;28;45055;-83
2023/08/08 10:58:58;;;;;;;1.77;0.60;;;20.70;54.20;;;;;;4856671;28;45626;-81
2023/08/08 11:01:26;;;;;;;1.23;0.50;;;20.80;54.20;;;;;;4884219;28;46703;-83
2023/08/08 11:03:52;;;;;;;1.27;0.60;;;20.80;54.20;;;;;;4874154;28;45838;-81
2023/08/08 11:06:18;;;;;;;1.85;0.68;;;20.80;54.20;;;;;;4889522;28;45770;-82
2023/08/08 11:08:47;;;;;;;1.33;0.50;;;20.70;54.20;;;;;;4846901;28;45858;-82
2023/08/08 11:11:13;;;;;;;1.67;0.80;;;20.80;54.20;;;;;;4891131;28;46437;-82
2023/08/08 11:13:38;;;;;;;0.70;0.50;;;20.80;54.20;;;;;;4864173;28;44663;-81
2023/08/08 11:16:04;;;;;;;1.35;0.63;;;20.80;54.20;;;;;;4858408;28;46007;-84
2023/08/08 11:18:30;;;;;;;1.98;0.60;;;20.80;54.20;;;;;;4886301;28;45566;-81
2023/08/08 11:20:55;;;;;;;1.30;0.57;;;20.80;54.20;;;;;;4875180;28;45480;-81
2023/08/08 11:23:21;;;;;;;1.85;0.60;;;20.80;54.20;;;;;;4880626;28;46162;-81
2023/08/08 11:25:47;;;;;;;0.93;0.70;;;20.80;54.20;;;;;;4872982;28;45420;-81
2023/08/08 11:28:13;;;;;;;1.63;0.60;;;20.80;54.20;;;;;;4880297;28;45118;-82
2023/08/08 11:30:41;;;;;;;2.03;0.65;;;20.80;54.20;;;;;;4890404;28;45688;-82
2023/08/08 11:33:07;;;;;;;2.10;0.45;;;20.80;54.20;;;;;;4880329;28;45600;-82
2023/08/08 11:35:34;;;;;;;2.35;0.70;;;20.80;54.20;;;;;;4874905;28;45767;-83
2023/08/08 11:37:59;;;;;;;0.68;0.55;;;20.80;54.20;;;;;;4875340;28;45957;-82
2023/08/08 11:40:26;;;;;;;1.50;0.52;;;20.80;54.20;;;;;;4859392;28;46886;-82
2023/08/08 11:42:52;;;;;;;1.25;0.70;;;20.80;54.20;;;;;;4876020;28;45469;-81
2023/08/08 11:45:18;;;;;;;1.30;0.60;;;20.80;54.20;;;;;;4861210;28;45728;-82
2023/08/08 11:47:43;;;;;;;1.63;0.60;;;20.80;54.20;;;;;;4889935;28;46359;-84
2023/08/08 11:50:10;;;;;;;1.23;0.50;;;20.80;54.20;;;;;;4889088;28;46107;-84
2023/08/08 11:52:41;;;;;;;0.88;0.45;;;20.80;54.20;;;;;;4892659;28;45630;-81
2023/08/08 11:55:10;;;;;;;1.00;0.50;;;20.80;54.20;;;;;;4875250;28;44750;-84
2023/08/08 11:57:37;;;;;;;2.45;0.60;;;20.80;54.10;;;;;;4876152;28;44899;-82
2023/08/08 12:00:12;;;;;;;0.75;0.65;;;20.80;54.10;;;;;;4859795;28;47145;-84
2023/08/08 12:02:45;;;;;;;1.95;0.60;;;20.80;54.10;;;;;;4875135;28;45017;-81
2023/08/08 12:05:12;;;;;;;2.03;0.80;;;20.80;54.10;;;;;;4856761;28;45828;-81
2023/08/08 12:07:41;;;;;;;1.35;0.50;;;20.80;54.10;;;;;;4862240;28;45741;-80
2023/08/08 12:10:17;;;;;;;1.17;0.50;;;20.80;54.10;;;;;;4859318;28;48673;-83
2023/08/08 12:12:43;;;;;;;1.85;0.50;;;20.80;54.10;;;;;;4891000;28;44695;-82
2023/08/08 12:15:14;;;;;;;3.65;0.60;;;20.80;54.10;;;;;;4857663;28;45979;-83
2023/08/08 12:17:40;;;;;;;0.90;0.30;;;20.80;54.00;;;;;;4892216;28;45342;-81
2023/08/08 12:20:11;;;;;;;1.92;0.70;;;20.80;54.00;;;;;;4886474;28;47058;-83
2023/08/08 12:22:37;;;;;;;1.13;0.40;;;20.80;54.10;;;;;;4859678;28;45525;-82
2023/08/08 12:25:04;;;;;;;1.25;0.65;;;20.90;54.10;;;;;;4874946;28;45933;-84
2023/08/08 12:27:30;;;;;;;1.50;0.50;;;20.80;54.00;;;;;;4877980;28;45690;-80
2023/08/08 12:29:56;;;;;;;3.55;0.57;;;20.80;54.00;;;;;;4874635;28;45880;-82
2023/08/08 12:32:24;;;;;;;1.08;0.50;;;20.80;54.00;;;;;;4870560;28;45269;-82
2023/08/08 12:34:50;;;;;;;0.82;0.60;;;20.90;54.10;;;;;;4887661;28;45383;-83
2023/08/08 12:37:16;;;;;;;0.50;0.40;;;20.90;54.10;;;;;;4843368;28;44933;-81
2023/08/08 12:39:42;;;;;;;1.70;0.77;;;20.90;54.10;;;;;;4875824;28;45024;-81
2023/08/08 12:42:07;;;;;;;0.70;0.63;;;20.90;54.10;;;;;;4871051;28;45824;-82
2023/08/08 12:44:33;;;;;;;1.27;0.68;;;20.80;54.00;;;;;;4842695;28;45242;-82
2023/08/08 12:46:58;;;;;;;0.85;0.50;;;20.90;54.00;;;;;;4888576;28;44985;-81
2023/08/08 12:49:24;;;;;;;2.05;0.70;;;20.90;54.00;;;;;;4888765;28;45412;-82
2023/08/08 12:51:50;;;;;;;1.63;0.90;;;20.90;54.00;;;;;;4839739;28;46205;-83
2023/08/08 12:54:16;;;;;;;1.63;0.63;;;20.90;54.60;;;;;;4842907;28;45396;-82
2023/08/08 12:56:41;;;;;;;1.10;0.52;;;20.90;54.00;;;;;;4873360;28;46171;-81
2023/08/08 12:59:07;;;;;;;1.42;0.70;;;20.90;54.60;;;;;;4891551;28;46639;-82
2023/08/08 13:01:32;;;;;;;0.75;0.43;;;20.90;54.00;;;;;;4869300;28;45636;-82
2023/08/08 13:03:58;;;;;;;0.95;0.70;;;20.90;54.00;;;;;;4891160;28;45797;-82
2023/08/08 13:06:23;;;;;;;0.50;0.38;;;20.90;54.00;;;;;;4844713;28;45929;-82
2023/08/08 13:08:49;;;;;;;0.50;0.50;;;20.90;54.00;;;;;;4857669;28;46374;-82
2023/08/08 13:11:15;;;;;;;1.23;0.68;;;20.90;54.10;;;;;;4841108;28;46034;-82
2023/08/08 13:13:40;;;;;;;2.58;0.70;;;20.90;54.00;;;;;;4876283;28;46337;-81
2023/08/08 13:16:06;;;;;;;0.50;0.50;;;21.00;54.00;;;;;;4886849;28;45773;-82
2023/08/08 13:18:31;;;;;;;3.25;0.60;;;20.90;54.00;;;;;;4862187;28;47439;-81
2023/08/08 13:20:57;;;;;;;1.38;0.60;;;21.00;54.00;;;;;;4864542;28;45538;-82
2023/08/08 13:23:23;;;;;;;0.90;0.60;;;21.00;54.00;;;;;;4893312;28;45612;-81
2023/08/08 13:25:49;;;;;;;1.10;0.70;;;20.90;54.00;;;;;;4859807;28;45069;-81
2023/08/08 13:28:14;;;;;;;4.78;0.90;;;20.90;54.00;;;;;;4875943;28;46116;-82
2023/08/08 13:30:42;;;;;;;0.90;0.55;;;20.90;54.40;;;;;;4846479;28;45672;-85
2023/08/08 13:33:08;;;;;;;0.73;0.68;;;20.90;54.00;;;;;;4854237;28;45393;-81
2023/08/08 13:35:34;;;;;;;0.98;0.50;;;20.90;54.00;;;;;;4896793;28;45535;-82
2023/08/08 13:37:59;;;;;;;3.40;0.70;;;20.90;54.00;;;;;;4901740;28;46653;-87
2023/08/08 13:40:25;;;;;;;2.55;0.70;;;21.00;54.00;;;;;;4863421;28;44731;-83
2023/08/08 13:42:51;;;;;;;3.90;0.90;;;20.90;54.00;;;;;;4867282;28;45083;-83
2023/08/08 13:45:20;;;;;;;2.75;0.80;;;20.90;54.00;;;;;;4880921;28;45717;-81
2023/08/08 13:47:45;;;;;;;1.45;0.85;;;20.90;53.90;;;;;;4851540;28;46289;-81
2023/08/08 13:50:13;;;;;;;3.63;0.75;;;20.90;54.00;;;;;;4862570;28;45566;-80
2023/08/08 13:52:39;;;;;;;4.57;0.90;;;20.90;54.00;;;;;;4867636;28;46342;-82
2023/08/08 13:55:08;;;;;;;10.30;1.05;;;20.90;54.00;;;;;;4878306;28;46729;-83
2023/08/08 13:57:37;;;;;;;6.68;0.90;;;21.00;54.00;;;;;;4880208;28;45469;-82
2023/08/08 14:00:12;;;;;;;3.85;0.90;;;21.00;54.00;;;;;;4863301;28;45737;-83
2023/08/08 14:02:41;;;;;;;4.78;1.00;;;21.00;54.00;;;;;;4856399;29;45278;-82
2023/08/08 14:05:07;;;;;;;7.30;0.90;;;21.00;54.00;;;;;;4856021;28;45553;-84
2023/08/08 14:07:35;;;;;;;5.50;1.10;;;21.00;54.00;;;;;;4855376;29;46067;-82
2023/08/08 14:10:05;;;;;;;7.07;1.08;;;21.00;54.00;;;;;;4867266;28;45125;-81
2023/08/08 14:12:30;;;;;;;5.13;1.45;;;21.00;53.90;;;;;;4855483;28;45401;-81
2023/08/08 14:14:56;;;;;;;5.75;1.30;;;21.00;54.00;;;;;;4856005;28;45582;-81
2023/08/08 14:17:22;;;;;;;4.30;0.95;;;21.00;54.00;;;;;;4832032;29;46708;-82
2023/08/08 14:19:47;;;;;;;5.20;1.23;;;21.00;53.90;;;;;;4872587;29;45574;-81
2023/08/08 14:22:13;;;;;;;6.75;1.38;;;21.00;53.90;;;;;;4860637;28;45514;-80
2023/08/08 14:24:38;;;;;;;3.88;0.93;;;21.00;54.00;;;;;;4851612;29;45621;-82
2023/08/08 14:27:04;;;;;;;5.30;1.60;;;21.00;54.00;;;;;;4903847;28;45244;-82
2023/08/08 14:29:29;;;;;;;9.93;1.67;;;21.00;54.00;;;;;;4857955;29;45250;-81
2023/08/08 14:31:55;;;;;;;3.80;1.15;;;21.00;53.90;;;;;;4881292;28;45712;-81
2023/08/08 14:34:31;;;;;;;2.60;0.90;;;21.00;53.90;;;;;;4868262;28;45661;-82
2023/08/08 14:36:57;;;;;;;2.67;1.35;;;21.10;54.00;;;;;;4850253;28;46740;-81
2023/08/08 14:39:23;;;;;;;4.18;1.13;;;21.00;53.90;;;;;;4833713;29;45962;-86
2023/08/08 14:41:49;;;;;;;5.90;1.20;;;21.10;54.00;;;;;;4862285;28;45941;-81
2023/08/08 14:44:14;;;;;;;4.90;1.20;;;21.10;54.10;;;;;;4850994;28;45598;-81
2023/08/08 14:46:40;;;;;;;7.15;1.25;;;21.00;53.90;;;;;;4847274;28;48053;-82
2023/08/08 14:49:06;;;;;;;2.17;1.00;;;21.10;54.00;;;;;;4864319;28;46061;-80
2023/08/08 14:51:32;;;;;;;3.58;0.98;;;21.10;54.00;;;;;;4849437;29;45836;-80
2023/08/08 14:53:58;;;;;;;2.75;0.93;;;21.10;54.00;;;;;;4883948;28;46265;-83
2023/08/08 14:56:26;;;;;;;3.85;1.00;;;21.10;54.00;;;;;;4867244;29;46963;-85
2023/08/08 14:58:52;;;;;;;6.20;0.88;;;21.10;54.00;;;;;;4868632;28;45280;-81
2023/08/08 15:01:17;;;;;;;2.92;1.20;;;21.10;54.00;;;;;;4859565;28;45806;-83
2023/08/08 15:03:43;;;;;;;4.05;1.17;;;21.10;54.00;;;;;;4884188;28;45602;-82
2023/08/08 15:06:09;;;;;;;3.05;0.82;;;21.10;54.00;;;;;;4884125;28;45989;-82
2023/08/08 15:08:34;;;;;;;4.22;0.95;;;21.10;54.00;;;;;;4888881;28;45048;-83
2023/08/08 15:11:00;;;;;;;6.78;1.10;;;21.10;54.00;;;;;;4858934;29;45746;-81
2023/08/08 15:13:26;;;;;;;2.83;0.80;;;21.10;54.00;;;;;;4861189;28;45315;-82
2023/08/08 15:15:51;;;;;;;3.10;0.80;;;21.10;54.00;;;;;;4870939;29;45512;-81
2023/08/08 15:18:17;;;;;;;2.42;0.85;;;21.10;54.00;;;;;;4890047;28;44803;-83
2023/08/08 15:20:42;;;;;;;3.08;1.10;;;21.10;54.00;;;;;;4857095;28;45455;-81
2023/08/08 15:23:10;;;;;;;1.88;0.85;;;21.10;54.00;;;;;;4874268;28;45785;-81
2023/08/08 15:25:36;;;;;;;2.78;1.05;;;21.10;54.00;;;;;;4875508;28;45721;-81
2023/08/08 15:28:03;;;;;;;3.78;1.00;;;21.10;54.00;;;;;;4877004;28;45651;-83
2023/08/08 15:30:29;;;;;;;3.53;0.95;;;21.10;54.00;;;;;;4875006;29;45134;-82
2023/08/08 15:33:09;;;;;;;3.15;0.80;;;21.10;54.60;;;;;;4858862;28;44672;-82
2023/08/08 15:35:34;;;;;;;2.85;1.10;;;21.10;53.90;;;;;;4871973;28;47182;-80
2023/08/08 15:38:00;;;;;;;3.53;0.80;;;21.10;54.00;;;;;;4862120;29;45679;-81
2023/08/08 15:40:25;;;;;;;1.58;0.70;;;21.10;54.00;;;;;;4874362;28;45417;-81
2023/08/08 15:42:51;;;;;;;2.50;0.80;;;21.10;54.00;;;;;;4872668;28;45244;-81
2023/08/08 15:45:17;;;;;;;1.35;0.80;;;21.10;54.00;;;;;;4841737;28;47560;-82